Time;durP1;ratioP1;P1;durP2;ratioP2;P2;SDS_P1;SDS_P2;PMS_P1;PMS_P2;Temp;Humidity;BMP_temperature;BMP_pressure;BME280_temperature;BME280_humidity;BME280_pressure;Samples;Min_cycle;Max_cycle;Signal;HPM_P1;HPM_P2
2022/06/27 00:00:31;;;;;;;10.32;8.52;;;;;;;24.13;56.21;101274.16;5035406;28;20140;-60
2022/06/27 00:03:02;;;;;;;12.05;8.18;;;;;;;24.09;56.48;101264.69;5035205;28;20099;-59
2022/06/27 00:05:32;;;;;;;11.43;8.02;;;;;;;24.07;56.57;101274.50;5035739;28;20045;-60
2022/06/27 00:08:00;;;;;;;12.15;9.35;;;;;;;24.04;56.75;101280.81;5035470;28;20061;-60
2022/06/27 00:10:31;;;;;;;10.50;7.82;;;;;;;24.04;56.89;101279.97;5035675;28;20053;-60
2022/06/27 00:12:58;;;;;;;12.43;7.38;;;;;;;24.01;57.21;101281.00;5035258;28;20529;-60
2022/06/27 00:15:36;;;;;;;9.30;7.75;;;;;;;24.01;57.15;101281.00;5035348;28;20462;-60
2022/06/27 00:18:04;;;;;;;10.13;7.20;;;;;;;24.00;57.25;101278.44;5035557;28;20055;-60
2022/06/27 00:20:33;;;;;;;10.30;7.22;;;;;;;23.97;57.27;101281.25;5035540;28;20056;-60
2022/06/27 00:23:00;;;;;;;9.75;7.25;;;;;;;23.94;57.30;101281.44;5035586;28;20051;-59
2022/06/27 00:25:31;;;;;;;9.75;7.03;;;;;;;23.89;57.35;101279.84;5035097;28;20458;-60
2022/06/27 00:28:00;;;;;;;9.13;7.13;;;;;;;23.87;57.56;101278.25;5035679;28;20045;-60
2022/06/27 00:30:44;;;;;;;8.00;7.20;;;;;;;23.85;57.79;101275.66;5034387;28;20053;-60
2022/06/27 00:33:20;;;;;;;8.77;7.50;;;;;;;23.81;58.03;101273.28;5035482;28;20111;-60
2022/06/27 00:35:50;;;;;;;9.25;6.53;;;;;;;23.79;58.11;101270.72;5035258;28;20045;-60
2022/06/27 00:38:18;;;;;;;9.20;6.72;;;;;;;23.80;58.31;101272.44;5035334;28;20053;-60
2022/06/27 00:40:49;;;;;;;8.18;6.75;;;;;;;23.77;58.25;101272.59;5035221;28;20079;-60
2022/06/27 00:43:16;;;;;;;8.07;6.30;;;;;;;23.73;58.09;101271.06;5034957;28;20466;-60
2022/06/27 00:45:45;;;;;;;8.18;6.55;;;;;;;23.71;58.18;101272.94;5034491;28;20418;-59
2022/06/27 00:48:15;;;;;;;7.85;6.00;;;;;;;23.68;58.01;101273.09;5034725;28;20057;-60
2022/06/27 00:50:45;;;;;;;8.82;6.45;;;;;;;23.66;57.94;101272.34;5034529;28;20506;-60
2022/06/27 00:53:15;;;;;;;9.80;6.63;;;;;;;23.62;58.09;101281.38;5034502;28;20584;-60
2022/06/27 00:55:46;;;;;;;7.28;6.22;;;;;;;23.60;58.10;101277.97;5035219;28;20160;-60
2022/06/27 00:58:13;;;;;;;8.30;6.35;;;;;;;23.55;58.18;101278.22;5034958;28;20159;-59
2022/06/27 01:00:43;;;;;;;7.50;6.07;;;;;;;23.53;58.03;101276.56;5034147;28;20061;-59
2022/06/27 01:03:24;;;;;;;6.70;5.63;;;;;;;23.51;57.92;101283.72;5034976;28;20103;-60
2022/06/27 01:05:56;;;;;;;7.50;6.13;;;;;;;23.47;58.24;101279.53;5034772;28;20064;-60
2022/06/27 01:08:26;;;;;;;8.23;6.22;;;;;;;23.44;58.70;101277.06;5034641;28;20050;-60
2022/06/27 01:10:54;;;;;;;9.02;6.70;;;;;;;23.40;58.93;101280.75;5034703;28;20049;-59
2022/06/27 01:13:30;;;;;;;8.80;7.20;;;;;;;23.38;59.02;101280.84;5034617;28;20053;-59
2022/06/27 01:15:58;;;;;;;8.68;6.85;;;;;;;23.35;59.08;101282.81;5034318;28;20049;-59
2022/06/27 01:18:32;;;;;;;9.63;7.03;;;;;;;23.30;59.30;101291.84;5034618;28;20053;-59
2022/06/27 01:21:02;;;;;;;9.95;5.93;;;;;;;23.27;59.36;101284.06;5034502;28;20069;-59
2022/06/27 01:23:44;;;;;;;7.05;6.32;;;;;;;23.25;59.24;101280.66;5034219;28;20049;-59
2022/06/27 01:26:13;;;;;;;7.07;6.18;;;;;;;23.22;59.28;101291.38;5034026;28;20053;-59
2022/06/27 01:28:43;;;;;;;7.47;6.65;;;;;;;23.20;59.22;101293.25;5034190;28;20057;-59
2022/06/27 01:31:20;;;;;;;7.70;6.15;;;;;;;23.17;59.24;101282.84;5033868;28;20061;-59
2022/06/27 01:33:50;;;;;;;8.07;7.20;;;;;;;23.11;59.54;101283.16;5033921;28;20356;-59
2022/06/27 01:39:10;;;;;;;11.52;6.40;;;;;;;23.10;59.78;101277.94;5033927;28;20060;-59
2022/06/27 01:41:41;;;;;;;7.23;5.90;;;;;;;23.08;59.58;101277.19;5034094;28;20045;-59
2022/06/27 01:44:10;;;;;;;8.18;6.45;;;;;;;23.06;59.66;101274.63;5033731;28;20291;-59
2022/06/27 01:46:44;;;;;;;7.75;6.55;;;;;;;23.05;59.55;101274.69;5033490;28;20088;-58
2022/06/27 01:49:14;;;;;;;8.48;6.90;;;;;;;23.03;59.48;101279.19;5033613;28;20064;-59
2022/06/27 01:51:51;;;;;;;8.15;6.55;;;;;;;23.00;59.51;101269.63;5033001;28;20071;-59
2022/06/27 01:54:23;;;;;;;8.05;6.70;;;;;;;22.99;59.39;101267.94;5031833;28;20184;-59
2022/06/27 01:56:53;;;;;;;7.72;6.28;;;;;;;22.98;59.72;101276.78;5033145;28;20054;-59
2022/06/27 01:59:22;;;;;;;8.48;6.25;;;;;;;22.97;59.71;101275.09;5032995;28;20371;-59
2022/06/27 02:01:50;;;;;;;9.27;6.63;;;;;;;22.94;59.74;101278.75;5033134;28;20056;-59
2022/06/27 02:04:18;;;;;;;6.85;6.00;;;;;;;22.93;59.91;101271.75;5033736;28;20041;-58
2022/06/27 02:06:54;;;;;;;6.72;6.13;;;;;;;22.91;59.90;101276.25;5033944;28;20116;-59
2022/06/27 02:09:28;;;;;;;6.75;6.05;;;;;;;22.90;59.83;101268.41;5033680;28;20053;-59
2022/06/27 02:11:56;;;;;;;9.05;6.88;;;;;;;22.85;60.20;101270.41;5033904;28;20093;-59
2022/06/27 02:14:24;;;;;;;8.07;6.72;;;;;;;22.82;60.35;101268.78;5033763;28;20061;-59
2022/06/27 02:16:50;;;;;;;7.82;6.30;;;;;;;22.79;60.28;101265.41;5033370;28;20671;-59
2022/06/27 02:19:20;;;;;;;9.75;6.63;;;;;;;22.77;60.12;101267.25;5033738;28;20064;-59
2022/06/27 02:21:48;;;;;;;6.88;6.18;;;;;;;22.75;60.11;101261.19;5033373;28;20045;-59
2022/06/27 02:24:17;;;;;;;9.98;6.82;;;;;;;22.74;60.35;101262.13;5033711;28;20052;-61
2022/06/27 02:26:51;;;;;;;7.80;6.50;;;;;;;22.73;60.32;101263.91;5033537;28;20068;-59
2022/06/27 02:29:19;;;;;;;7.93;6.07;;;;;;;22.71;60.63;101268.44;5033385;28;20060;-59
2022/06/27 02:31:49;;;;;;;11.70;7.30;;;;;;;22.70;60.69;101269.38;5033414;28;20284;-59
2022/06/27 02:34:19;;;;;;;9.98;6.18;;;;;;;22.66;60.72;101266.03;5033080;28;20462;-59
2022/06/27 02:36:49;;;;;;;6.32;5.72;;;;;;;22.63;60.50;101268.81;5033341;28;20049;-59
2022/06/27 02:39:28;;;;;;;7.90;6.10;;;;;;;22.61;60.54;101273.31;5033084;28;20501;-59
2022/06/27 02:42:05;;;;;;;7.22;6.40;;;;;;;22.57;60.53;101261.19;5033342;28;20050;-58
2022/06/27 02:44:41;;;;;;;8.40;6.25;;;;;;;22.55;60.82;101268.34;5033142;28;20045;-58
2022/06/27 02:47:12;;;;;;;7.47;6.35;;;;;;;22.55;61.05;101264.84;5033071;28;20123;-58
2022/06/27 02:49:39;;;;;;;7.28;6.00;;;;;;;22.56;61.17;101270.06;5033162;28;20049;-59
2022/06/27 02:52:13;;;;;;;8.45;7.57;;;;;;;22.57;61.04;101266.47;5034334;28;20371;-59
2022/06/27 02:54:45;;;;;;;7.95;6.55;;;;;;;22.57;61.02;101269.13;5039786;28;20065;-59
2022/06/27 02:57:36;;;;;;;9.13;6.45;;;;;;;22.62;60.82;101269.75;5039473;28;20393;-59
2022/06/27 03:00:08;;;;;;;10.90;6.70;;;;;;;22.65;60.95;101284.59;5039047;28;20068;-58
2022/06/27 03:02:44;;;;;;;8.38;6.63;;;;;;;22.67;60.85;101280.94;5039203;28;20477;-59
2022/06/27 03:05:11;;;;;;;7.90;6.25;;;;;;;22.70;60.96;101287.00;5039895;28;20087;-59
2022/06/27 03:07:39;;;;;;;8.20;6.75;;;;;;;22.78;60.94;101284.84;5039620;28;20061;-59
2022/06/27 03:10:16;;;;;;;9.85;6.68;;;;;;;22.84;60.71;101281.91;5039512;28;20053;-59
2022/06/27 03:12:45;;;;;;;11.23;7.03;;;;;;;22.88;60.64;101280.81;5039718;28;20042;-59
2022/06/27 03:15:13;;;;;;;10.45;7.30;;;;;;;22.93;60.65;101284.97;5038899;28;20053;-59
2022/06/27 03:17:41;;;;;;;8.40;6.30;;;;;;;22.99;60.65;101283.78;5039514;28;20048;-59
2022/06/27 03:20:10;;;;;;;6.53;5.32;;;;;;;23.07;60.62;101284.25;5039381;28;20489;-59
2022/06/27 03:22:39;;;;;;;14.90;6.75;;;;;;;23.13;60.58;101291.88;5039294;28;20542;-58
2022/06/27 03:25:08;;;;;;;10.02;6.28;;;;;;;23.22;60.32;101291.38;5039711;28;20045;-58
2022/06/27 03:30:27;;;;;;;10.63;6.55;;;;;;;23.40;60.11;101297.50;5039174;28;20063;-59
2022/06/27 03:32:58;;;;;;;7.68;6.05;;;;;;;23.48;60.13;101299.75;5039150;28;20057;-59
2022/06/27 03:35:28;;;;;;;9.50;5.93;;;;;;;23.57;59.88;101294.84;5039131;28;20045;-59
2022/06/27 03:37:59;;;;;;;10.68;6.95;;;;;;;23.68;59.71;101294.28;5039117;28;20505;-59
2022/06/27 03:40:29;;;;;;;10.00;7.60;;;;;;;23.77;59.49;101299.06;5039127;28;20056;-59
2022/06/27 03:42:59;;;;;;;7.57;6.22;;;;;;;23.89;59.44;101298.41;5039206;28;20056;-59
2022/06/27 03:45:41;;;;;;;8.23;6.75;;;;;;;24.03;59.30;101299.44;5039195;28;20140;-59
2022/06/27 03:49:59;;;;;;;8.63;6.70;;;;;;;24.17;59.00;101302.19;5039015;28;20048;-59
2022/06/27 03:50:57;;;;;;;9.10;7.28;;;;;;;24.31;58.59;101310.22;5038452;28;20049;-59
2022/06/27 03:53:25;;;;;;;9.32;6.97;;;;;;;24.44;58.41;101311.22;5039023;28;20420;-59
2022/06/27 03:55:53;;;;;;;11.95;6.97;;;;;;;24.57;58.21;101302.59;5038987;28;20053;-59
2022/06/27 03:58:21;;;;;;;8.98;7.15;;;;;;;24.69;57.78;101304.53;5039192;28;20059;-59
2022/06/27 04:00:54;;;;;;;9.13;6.93;;;;;;;24.84;57.41;101308.94;5038693;28;20041;-59
2022/06/27 04:03:24;;;;;;;7.40;6.40;;;;;;;24.99;57.22;101309.91;5037949;28;20056;-59
2022/06/27 04:05:52;;;;;;;8.15;7.07;;;;;;;25.16;56.69;101310.59;5035470;28;20054;-58
2022/06/27 04:08:22;;;;;;;8.48;6.85;;;;;;;25.36;56.58;101308.50;5036113;28;20056;-59
2022/06/27 04:10:52;;;;;;;11.55;7.20;;;;;;;25.55;55.79;101311.78;5036128;28;20049;-58
2022/06/27 04:13:23;;;;;;;7.65;6.35;;;;;;;25.75;55.64;101311.41;5036347;28;20064;-58
2022/06/27 04:16:00;;;;;;;9.40;6.43;;;;;;;25.96;55.20;101316.31;5036523;28;20081;-58
2022/06/27 04:18:28;;;;;;;10.43;7.30;;;;;;;26.15;54.81;101316.88;5036223;28;20053;-58
2022/06/27 04:20:55;;;;;;;8.85;6.63;;;;;;;26.32;53.81;101313.97;5036029;28;20053;-57
2022/06/27 04:23:25;;;;;;;7.80;6.47;;;;;;;26.52;52.91;101319.81;5036007;28;20049;-58
2022/06/27 04:25:56;;;;;;;9.93;6.30;;;;;;;26.71;51.59;101320.31;5036153;28;20049;-57
2022/06/27 04:28:26;;;;;;;10.80;6.57;;;;;;;26.91;51.08;101322.47;5035745;28;20053;-57
2022/06/27 04:31:10;;;;;;;6.93;5.88;;;;;;;27.14;50.04;101320.13;5034007;28;20085;-58
2022/06/27 04:36:20;;;;;;;23.58;6.90;;;;;;;27.56;49.00;101330.44;5034418;28;20064;-57
2022/06/27 04:38:51;;;;;;;9.07;5.38;;;;;;;27.79;48.83;101331.53;5035232;28;20049;-57
2022/06/27 04:41:20;;;;;;;41.95;8.15;;;;;;;28.04;48.37;101332.44;5035998;28;20053;-57
2022/06/27 04:43:49;;;;;;;8.13;6.47;;;;;;;28.23;47.67;101325.72;5035432;28;20132;-58
2022/06/27 04:46:24;;;;;;;38.47;7.90;;;;;;;28.40;47.22;101327.13;5035355;28;20132;-57
2022/06/27 04:48:51;;;;;;;27.80;7.90;;;;;;;28.59;46.89;101326.59;5035531;28;20053;-58
2022/06/27 04:51:19;;;;;;;10.35;6.40;;;;;;;28.77;46.37;101332.41;5033184;28;20083;-58
2022/06/27 04:53:51;;;;;;;9.45;6.50;;;;;;;28.97;45.81;101325.56;5033927;28;20741;-58
2022/06/27 04:59:01;;;;;;;9.05;6.18;;;;;;;29.23;44.59;101332.47;5034816;28;20053;-58
2022/06/27 05:01:38;;;;;;;9.85;6.20;;;;;;;29.37;44.39;101340.25;5034445;28;20049;-58
2022/06/27 05:04:08;;;;;;;9.88;5.88;;;;;;;29.49;44.13;101343.81;5034587;28;20065;-58
2022/06/27 05:06:44;;;;;;;11.40;5.72;;;;;;;29.64;43.52;101336.41;5034532;28;20068;-59
2022/06/27 05:09:11;;;;;;;14.30;6.35;;;;;;;29.81;43.43;101343.94;5035417;28;20049;-59
2022/06/27 05:11:50;;;;;;;13.63;6.55;;;;;;;29.99;42.89;101347.81;5034877;28;20466;-57
2022/06/27 05:17:16;;;;;;;8.00;5.90;;;;;;;30.33;41.92;101351.34;5035108;28;20056;-58
2022/06/27 05:19:52;;;;;;;12.82;6.10;;;;;;;30.43;41.81;101348.75;5035308;28;20125;-58
2022/06/27 05:22:23;;;;;;;7.28;5.57;;;;;;;30.62;41.34;101351.63;5035467;28;20081;-58
2022/06/27 05:24:50;;;;;;;11.45;5.35;;;;;;;30.73;41.65;101346.25;5035433;28;20064;-58
2022/06/27 05:27:18;;;;;;;9.88;5.55;;;;;;;30.88;41.35;101345.94;5035407;28;20060;-59
2022/06/27 05:29:50;;;;;;;7.30;5.60;;;;;;;31.01;40.72;101341.25;5035408;28;20053;-59
2022/06/27 05:32:22;;;;;;;7.70;5.70;;;;;;;31.11;40.61;101347.50;5035509;28;20073;-59
2022/06/27 05:34:50;;;;;;;7.18;5.57;;;;;;;31.15;40.33;101348.09;5035797;28;20053;-59
2022/06/27 05:37:20;;;;;;;10.77;5.75;;;;;;;31.20;39.86;101352.09;5034733;28;20046;-59
2022/06/27 05:39:46;;;;;;;7.00;5.70;;;;;;;31.31;39.30;101348.53;5035335;28;20057;-58
2022/06/27 05:42:13;;;;;;;7.07;5.30;;;;;;;31.41;39.53;101348.59;5034729;28;20132;-58
2022/06/27 05:47:30;;;;;;;9.07;5.63;;;;;;;31.64;38.82;101358.16;5035261;28;20041;-58
2022/06/27 05:49:59;;;;;;;6.93;5.63;;;;;;;31.75;38.56;101357.25;5015295;28;20066;-58
2022/06/27 05:52:29;;;;;;;8.43;5.50;;;;;;;31.86;38.37;101360.69;5014939;28;20057;-59
2022/06/27 05:54:59;;;;;;;10.55;5.57;;;;;;;32.00;38.04;101357.63;5015575;28;20140;-59
2022/06/27 05:57:30;;;;;;;8.05;5.63;;;;;;;32.11;37.93;101359.34;5015343;28;20045;-59
2022/06/27 06:00:00;;;;;;;7.00;6.30;;;;;;;32.18;38.14;101365.00;5015867;28;20050;-59
2022/06/27 06:02:42;;;;;;;9.32;5.90;;;;;;;32.28;38.33;101361.41;5025342;28;20088;-59
2022/06/27 06:05:13;;;;;;;9.32;5.35;;;;;;;32.45;38.50;101357.22;5035276;28;20049;-59
2022/06/27 06:07:43;;;;;;;12.45;6.30;;;;;;;32.61;37.96;101362.88;5034753;28;20049;-59
2022/06/27 06:10:13;;;;;;;6.80;5.90;;;;;;;32.69;37.20;101366.69;5034825;28;20053;-58
2022/06/27 06:12:42;;;;;;;8.98;5.68;;;;;;;32.80;37.21;101362.06;5034473;28;20461;-58
2022/06/27 06:15:14;;;;;;;5.78;5.15;;;;;;;32.92;36.89;101365.47;5034715;28;20132;-57
2022/06/27 06:17:51;;;;;;;7.63;5.32;;;;;;;33.00;36.09;101362.91;5034726;28;20132;-59
2022/06/27 06:20:22;;;;;;;7.85;5.18;;;;;;;33.09;36.13;101363.88;5035047;28;20111;-59
2022/06/27 06:22:52;;;;;;;9.88;5.72;;;;;;;33.23;35.48;101364.28;5034554;28;20057;-59
2022/06/27 06:25:23;;;;;;;9.57;5.35;;;;;;;33.32;35.41;101367.16;5035048;28;20084;-59
2022/06/27 06:27:49;;;;;;;9.95;5.43;;;;;;;33.40;35.24;101364.56;5034114;28;20053;-59
2022/06/27 06:30:21;;;;;;;6.80;5.65;;;;;;;33.46;35.16;101355.94;5034066;28;20059;-59
2022/06/27 06:32:55;;;;;;;67.18;9.90;;;;;;;33.50;35.10;101360.84;5034799;28;20045;-58
2022/06/27 06:35:25;;;;;;;8.23;5.37;;;;;;;33.58;35.24;101368.19;5034762;28;20056;-59
2022/06/27 06:37:52;;;;;;;8.73;5.78;;;;;;;33.68;34.99;101357.41;5034505;28;20049;-58
2022/06/27 06:40:21;;;;;;;8.38;5.80;;;;;;;33.72;35.15;101356.94;5034371;28;20049;-59
2022/06/27 06:42:51;;;;;;;7.88;5.82;;;;;;;33.82;34.97;101355.13;5033965;28;20057;-58
2022/06/27 06:45:21;;;;;;;22.45;6.30;;;;;;;33.90;34.81;101356.22;5034399;28;20462;-59
2022/06/27 06:47:54;;;;;;;6.85;5.07;;;;;;;34.03;34.59;101345.94;5034578;28;20114;-58
2022/06/27 06:50:24;;;;;;;47.90;8.32;;;;;;;34.17;34.63;101342.75;5033857;28;20057;-59
2022/06/27 06:53:01;;;;;;;10.75;5.45;;;;;;;34.33;34.48;101348.31;5033565;28;20359;-59
2022/06/27 06:55:28;;;;;;;10.23;5.88;;;;;;;34.47;34.08;101344.28;5034356;28;20049;-58
2022/06/27 06:57:57;;;;;;;17.13;6.93;;;;;;;34.54;33.93;101339.13;5033721;28;20398;-59
2022/06/27 07:00:27;;;;;;;7.22;5.47;;;;;;;34.58;33.94;101340.50;5033477;28;20547;-59
2022/06/27 07:02:59;;;;;;;6.75;5.25;;;;;;;34.68;33.59;101336.75;5033838;28;20119;-59
2022/06/27 07:05:26;;;;;;;6.00;5.40;;;;;;;34.79;33.51;101335.66;5033932;28;20053;-58
2022/06/27 07:07:54;;;;;;;10.95;5.32;;;;;;;34.89;33.29;101328.38;5033740;28;20050;-59
2022/06/27 07:10:23;;;;;;;6.00;5.30;;;;;;;35.01;33.28;101329.81;5033884;28;20080;-59
2022/06/27 07:12:51;;;;;;;8.07;5.68;;;;;;;35.15;33.37;101335.63;5033664;28;20050;-59
2022/06/27 07:15:22;;;;;;;10.70;6.00;;;;;;;35.21;33.12;101333.13;5033413;28;20088;-59
2022/06/27 07:17:53;;;;;;;9.55;5.80;;;;;;;35.25;32.95;101333.66;5033524;28;20049;-58
2022/06/27 07:20:30;;;;;;;7.45;5.45;;;;;;;35.33;33.03;101331.06;5033493;28;20053;-58
2022/06/27 07:23:01;;;;;;;7.32;5.70;;;;;;;35.46;33.23;101331.50;5032536;28;20053;-58
2022/06/27 07:25:31;;;;;;;6.93;5.47;;;;;;;35.52;32.53;101336.25;5032765;28;20465;-59
2022/06/27 07:28:00;;;;;;;6.60;5.45;;;;;;;35.58;32.11;101330.19;5033224;28;20053;-58
2022/06/27 07:30:28;;;;;;;13.45;5.40;;;;;;;35.60;32.11;101327.34;5033023;28;20092;-58
2022/06/27 07:33:00;;;;;;;9.98;5.10;;;;;;;35.62;32.37;101325.31;5032745;28;20072;-59
2022/06/27 07:35:33;;;;;;;8.77;5.85;;;;;;;35.72;32.36;101315.25;5033020;28;20050;-58
2022/06/27 07:38:04;;;;;;;7.03;5.65;;;;;;;35.81;32.39;101319.69;5032892;28;20045;-59
2022/06/27 07:40:35;;;;;;;9.45;5.30;;;;;;;35.88;32.84;101323.44;5036410;28;20045;-59
2022/06/27 07:43:05;;;;;;;8.73;5.25;;;;;;;35.98;32.36;101321.47;5036416;28;20053;-59
2022/06/27 07:45:32;;;;;;;12.27;6.20;;;;;;;36.10;32.38;101323.84;5036138;28;20064;-59
2022/06/27 07:48:03;;;;;;;5.18;4.63;;;;;;;36.16;32.21;101321.34;5034509;28;20056;-59
2022/06/27 07:50:50;;;;;;;5.30;4.68;;;;;;;36.25;31.82;101314.94;5036305;28;20057;-59
2022/06/27 07:53:20;;;;;;;6.18;4.60;;;;;;;36.32;31.79;101313.31;5035785;28;20088;-58
2022/06/27 07:55:50;;;;;;;11.05;4.60;;;;;;;36.34;31.12;101316.69;5036105;28;20063;-59
2022/06/27 07:58:26;;;;;;;7.80;4.78;;;;;;;36.45;31.61;101317.38;5036109;28;20049;-58
2022/06/27 08:00:56;;;;;;;5.32;4.50;;;;;;;36.57;31.39;101316.88;5036052;28;20451;-58
2022/06/27 08:03:40;;;;;;;6.30;4.60;;;;;;;36.68;31.43;101318.41;5035780;28;20053;-58
2022/06/27 08:06:25;;;;;;;5.23;4.37;;;;;;;36.81;31.33;101313.38;5016360;28;20069;-59
2022/06/27 08:09:03;;;;;;;12.00;5.47;;;;;;;36.85;31.74;101306.59;5015905;28;20104;-59
2022/06/27 08:11:40;;;;;;;6.55;4.80;;;;;;;36.89;31.47;101307.94;5015920;28;20054;-59
2022/06/27 08:14:16;;;;;;;11.80;4.45;;;;;;;36.97;31.05;101299.88;5015814;28;20050;-59
2022/06/27 08:16:45;;;;;;;24.92;6.40;;;;;;;37.08;31.37;101303.22;5015829;28;20112;-58
2022/06/27 08:19:15;;;;;;;5.47;3.90;;;;;;;37.18;31.32;101298.47;5015667;28;20391;-59
2022/06/27 08:21:59;;;;;;;7.18;4.28;;;;;;;37.35;30.30;101305.53;5016192;28;20060;-59
2022/06/27 08:24:26;;;;;;;10.80;4.43;;;;;;;37.50;30.95;101293.00;5015433;28;20475;-58
2022/06/27 08:26:55;;;;;;;4.28;3.67;;;;;;;37.63;30.51;101305.13;5017095;28;20054;-59
2022/06/27 08:29:22;;;;;;;5.43;3.70;;;;;;;37.68;30.40;101292.75;5020634;28;20045;-59
2022/06/27 08:31:52;;;;;;;4.55;3.65;;;;;;;37.73;30.31;101294.94;5035229;28;20053;-59
2022/06/27 08:34:21;;;;;;;7.70;3.72;;;;;;;37.83;29.78;101296.41;5035206;28;20049;-59
2022/06/27 08:36:53;;;;;;;10.65;4.00;;;;;;;37.95;29.38;101286.03;5035540;28;20053;-59
2022/06/27 08:39:22;;;;;;;4.40;3.28;;;;;;;38.01;29.25;101288.06;5035511;28;20069;-58
2022/06/27 08:41:51;;;;;;;8.30;3.35;;;;;;;38.14;29.39;101293.72;5035729;28;20092;-59
2022/06/27 08:44:21;;;;;;;18.17;4.38;;;;;;;38.26;29.28;101293.31;5035551;28;20055;-59
2022/06/27 08:46:51;;;;;;;6.57;3.70;;;;;;;38.30;28.96;101294.66;5035311;28;20447;-58
2022/06/27 08:52:06;;;;;;;7.68;3.30;;;;;;;38.40;28.95;101289.81;5035689;28;20053;-59
2022/06/27 08:54:37;;;;;;;5.22;3.42;;;;;;;38.50;28.56;101295.84;5036000;28;20046;-60
2022/06/27 08:57:08;;;;;;;41.97;6.18;;;;;;;38.74;27.92;101284.84;5035935;28;20064;-59
2022/06/27 08:59:38;;;;;;;4.57;3.40;;;;;;;39.22;27.12;101298.13;5036068;28;20049;-60
2022/06/27 09:02:12;;;;;;;6.05;3.35;;;;;;;39.66;26.55;101287.28;5035547;28;20059;-59
2022/06/27 09:07:59;;;;;;;5.80;3.20;;;;;;;38.80;27.14;101294.09;5035919;28;20058;-59
2022/06/27 09:10:33;;;;;;;32.10;4.78;;;;;;;38.46;27.79;101299.94;5035588;28;20057;-59
2022/06/27 09:13:06;;;;;;;8.27;3.60;;;;;;;38.27;27.89;101289.59;5035973;28;20133;-59
2022/06/27 09:15:59;;;;;;;5.57;3.17;;;;;;;38.15;27.87;101283.72;5035681;28;20115;-59
2022/06/27 09:18:30;;;;;;;8.77;3.60;;;;;;;38.00;28.17;101286.38;5035069;28;20700;-59
2022/06/27 09:20:59;;;;;;;3.88;3.28;;;;;;;37.81;28.32;101284.09;5035304;28;20123;-59
2022/06/27 09:23:47;;;;;;;6.20;3.40;;;;;;;37.66;28.50;101275.00;5035357;28;20056;-59
2022/06/27 09:26:25;;;;;;;88.53;10.40;;;;;;;37.56;28.96;101276.06;5035434;28;20061;-59
2022/06/27 09:28:58;;;;;;;12.20;4.28;;;;;;;37.49;28.90;101277.78;5034800;28;20054;-59
2022/06/27 09:31:48;;;;;;;41.58;7.28;;;;;;;37.53;29.19;101268.31;5034878;28;20414;-59
2022/06/27 09:34:18;;;;;;;7.28;3.33;;;;;;;37.53;28.86;101265.59;5035454;28;20087;-59
2022/06/27 09:36:52;;;;;;;8.13;3.97;;;;;;;37.46;28.52;101278.16;5034718;28;20462;-59
2022/06/27 09:39:24;;;;;;;4.38;3.20;;;;;;;37.42;28.78;101262.41;5034879;28;20045;-59
2022/06/27 09:42:04;;;;;;;6.47;3.25;;;;;;;37.48;28.54;101265.28;5034590;28;20730;-59
2022/06/27 09:44:41;;;;;;;4.00;3.33;;;;;;;37.46;28.61;101255.63;5034934;28;20080;-59
2022/06/27 09:47:15;;;;;;;9.80;3.97;;;;;;;37.38;28.11;101266.50;5034603;28;20041;-59
2022/06/27 09:49:49;;;;;;;31.08;5.38;;;;;;;37.22;28.72;101256.56;5032748;28;20054;-59
2022/06/27 09:52:24;;;;;;;7.78;3.33;;;;;;;37.08;28.73;101260.81;5031384;28;20049;-59
2022/06/27 09:54:59;;;;;;;10.45;3.33;;;;;;;37.01;29.05;101259.00;5033490;28;20076;-59
2022/06/27 09:57:29;;;;;;;6.35;3.38;;;;;;;36.86;29.05;101250.72;5034614;28;20049;-59
2022/06/27 09:59:56;;;;;;;8.18;3.50;;;;;;;36.71;29.79;101239.75;5034761;28;20055;-59
2022/06/27 10:02:28;;;;;;;4.03;3.45;;;;;;;36.68;29.48;101242.78;5033611;28;20045;-59
2022/06/27 10:04:56;;;;;;;8.68;3.17;;;;;;;36.61;29.96;101247.19;5034659;28;20053;-59
2022/06/27 10:07:26;;;;;;;11.88;3.55;;;;;;;36.54;29.85;101238.06;5021487;28;20140;-59
2022/06/27 10:09:58;;;;;;;6.63;3.08;;;;;;;36.48;29.50;101236.91;5033553;28;20076;-59
2022/06/27 10:12:35;;;;;;;68.07;10.18;;;;;;;36.48;29.81;101230.66;5032927;28;20368;-59
2022/06/27 10:15:25;;;;;;;7.20;3.75;;;;;;;36.40;29.46;101233.34;5033403;28;20058;-59
2022/06/27 10:17:58;;;;;;;6.88;3.25;;;;;;;36.41;29.71;101237.72;5013665;28;20540;-59
2022/06/27 10:20:47;;;;;;;6.13;3.35;;;;;;;36.46;29.88;101235.38;5013817;28;20492;-59
2022/06/27 10:23:37;;;;;;;5.85;3.38;;;;;;;36.45;29.66;101239.09;5030277;28;20066;-59
2022/06/27 10:26:07;;;;;;;4.38;3.25;;;;;;;36.33;30.18;101234.00;5033961;28;20112;-59
2022/06/27 10:28:38;;;;;;;6.72;3.58;;;;;;;36.22;30.41;101239.72;5033709;28;20356;-59
2022/06/27 10:31:08;;;;;;;115.38;12.18;;;;;;;36.12;30.37;101236.34;5033228;28;20063;-59
2022/06/27 10:33:43;;;;;;;21.08;4.70;;;;;;;36.16;30.32;101231.44;5032220;28;20050;-60
2022/06/27 10:36:14;;;;;;;5.40;2.78;;;;;;;36.23;30.28;101227.91;5032050;28;20049;-59
2022/06/27 10:39:01;;;;;;;6.43;3.30;;;;;;;36.25;29.87;101231.28;5031877;28;20068;-59
2022/06/27 10:41:41;;;;;;;3.53;2.75;;;;;;;36.30;29.30;101222.72;5033120;28;20059;-58
2022/06/27 10:44:33;;;;;;;3.83;2.58;;;;;;;36.34;28.85;101230.28;5033719;28;20057;-59
2022/06/27 10:47:04;;;;;;;9.48;3.30;;;;;;;36.39;29.08;101231.66;5020995;28;20080;-59
2022/06/27 10:49:34;;;;;;;7.72;3.30;;;;;;;36.43;29.09;101223.06;5033362;28;20136;-59
2022/06/27 10:52:31;;;;;;;70.68;7.35;;;;;;;36.45;28.42;101225.59;5033528;28;20466;-59
2022/06/27 10:55:03;;;;;;;7.72;3.00;;;;;;;36.42;28.95;101220.50;4988055;28;20136;-59
2022/06/27 10:57:48;;;;;;;18.05;3.78;;;;;;;36.46;28.22;101224.59;5033259;28;20447;-59
2022/06/27 11:00:44;;;;;;;5.93;2.58;;;;;;;36.40;27.68;101217.97;5033804;28;20045;-59
2022/06/27 11:03:23;;;;;;;10.90;3.28;;;;;;;36.38;28.07;101214.59;5033628;28;20057;-59
2022/06/27 11:05:58;;;;;;;11.60;2.85;;;;;;;36.37;27.74;101217.47;5033824;28;20396;-59
2022/06/27 11:08:27;;;;;;;13.32;3.13;;;;;;;36.32;28.26;101205.34;5033361;28;20080;-59
2022/06/27 11:11:03;;;;;;;13.35;3.40;;;;;;;36.24;28.11;101213.41;5033637;28;20435;-59
2022/06/27 11:13:53;;;;;;;13.02;3.00;;;;;;;36.19;27.54;101204.13;5034601;28;20138;-59
2022/06/27 11:16:23;;;;;;;12.48;2.83;;;;;;;36.11;27.65;101206.81;5038042;28;20143;-59
2022/06/27 11:19:00;;;;;;;4.75;2.28;;;;;;;36.08;27.46;101197.22;5037389;28;20060;-59
2022/06/27 11:21:29;;;;;;;4.65;2.40;;;;;;;36.01;28.03;101213.22;5037524;28;20053;-59
2022/06/27 11:24:00;;;;;;;6.80;3.03;;;;;;;35.98;27.22;101213.56;5037097;28;20549;-59
2022/06/27 11:26:30;;;;;;;6.75;2.55;;;;;;;35.91;27.13;101206.31;5037396;28;20054;-59
2022/06/27 11:32:06;;;;;;;5.10;2.30;;;;;;;35.72;27.06;101197.44;5035053;28;20056;-59
2022/06/27 11:34:38;;;;;;;9.93;2.75;;;;;;;35.66;27.85;101208.91;5036449;28;20068;-57
2022/06/27 11:37:12;;;;;;;6.45;2.72;;;;;;;35.62;27.20;101204.84;5037127;28;20053;-59
2022/06/27 11:39:41;;;;;;;4.43;2.35;;;;;;;35.53;27.45;101202.28;5036971;28;20140;-59
2022/06/27 11:42:12;;;;;;;5.93;2.60;;;;;;;35.49;27.60;101195.53;5036949;28;20123;-59
2022/06/27 11:45:13;;;;;;;3.65;2.40;;;;;;;35.38;26.12;101202.03;5036431;28;20053;-59
2022/06/27 11:47:43;;;;;;;3.13;2.08;;;;;;;35.28;27.20;101204.00;5031686;28;20133;-59
2022/06/27 11:50:14;;;;;;;3.92;2.38;;;;;;;35.24;27.64;101202.63;5036064;28;20477;-59
2022/06/27 11:52:43;;;;;;;9.15;2.88;;;;;;;35.24;28.22;101202.63;5036211;28;20064;-59
2022/06/27 11:55:22;;;;;;;4.60;2.60;;;;;;;35.19;28.96;101194.19;5036653;28;20057;-59
2022/06/27 11:57:58;;;;;;;7.47;2.65;;;;;;;35.16;28.85;101211.53;5036525;28;20061;-59
2022/06/27 12:00:39;;;;;;;14.32;3.38;;;;;;;35.11;28.82;101203.09;5036360;28;20132;-59
2022/06/27 12:03:10;;;;;;;3.72;2.70;;;;;;;35.07;29.12;101196.34;5035753;28;20485;-58
2022/06/27 12:05:45;;;;;;;5.18;2.90;;;;;;;35.01;29.60;101186.19;5036033;28;20446;-59
2022/06/27 12:08:24;;;;;;;5.70;2.85;;;;;;;34.95;29.42;101193.06;5036327;28;20053;-59
2022/06/27 12:13:37;;;;;;;5.70;3.03;;;;;;;34.73;29.54;101198.94;5035135;28;20463;-58